createdAt,value
2023-03-02T00:00:16.048Z,100.00
2023-03-02T00:01:04.101Z,100.00
2023-03-02T00:02:01.941Z,100.00
2023-03-02T00:02:44.139Z,100.00
2023-03-02T00:03:26.888Z,100.00
2023-03-02T00:04:17.343Z,100.00
2023-03-02T00:04:59.058Z,100.00
2023-03-02T00:05:41.753Z,100.00
2023-03-02T00:06:23.379Z,100.00
2023-03-02T00:07:08.667Z,100.00
2023-03-02T00:07:50.312Z,100.00
2023-03-02T00:08:33.108Z,100.00
2023-03-02T00:09:14.991Z,100.00
2023-03-02T00:09:56.651Z,100.00
2023-03-02T00:10:38.724Z,100.00
2023-03-02T00:11:21.513Z,100.00
2023-03-02T00:12:04.914Z,100.00
2023-03-02T00:12:46.912Z,100.00
2023-03-02T00:13:32.283Z,100.00
2023-03-02T00:14:13.973Z,100.00
2023-03-02T00:14:55.635Z,100.00
2023-03-02T00:15:37.279Z,100.00
2023-03-02T00:16:19.008Z,100.00
2023-03-02T00:17:02.633Z,100.00
2023-03-02T00:17:44.247Z,100.00
2023-03-02T00:18:25.866Z,100.00
2023-03-02T00:19:07.601Z,100.00
2023-03-02T00:19:49.231Z,100.00
2023-03-02T00:20:30.915Z,100.00
2023-03-02T00:21:12.779Z,100.00
2023-03-02T00:21:54.426Z,100.00
2023-03-02T00:22:40.599Z,100.00
2023-03-02T00:23:22.235Z,100.00
2023-03-02T00:24:04.561Z,100.00
2023-03-02T00:24:46.341Z,100.00
2023-03-02T00:25:28.711Z,100.00
2023-03-02T00:26:10.660Z,100.00
2023-03-02T00:26:53.179Z,100.00
2023-03-02T00:27:34.826Z,100.00
2023-03-02T00:28:16.461Z,100.00
2023-03-02T00:28:58.055Z,100.00
2023-03-02T00:29:39.832Z,100.00
2023-03-02T00:30:21.449Z,100.00
2023-03-02T00:31:06.672Z,100.00
2023-03-02T00:31:48.552Z,100.00
2023-03-02T00:32:30.210Z,100.00
2023-03-02T00:33:11.937Z,100.00
2023-03-02T00:33:56.267Z,100.00
2023-03-02T00:34:37.968Z,100.00
2023-03-02T00:35:19.645Z,100.00
2023-03-02T00:36:02.503Z,100.00
2023-03-02T00:36:44.447Z,100.00
2023-03-02T00:37:26.493Z,100.00
2023-03-02T00:38:08.474Z,100.00
2023-03-02T00:38:52.194Z,100.00
2023-03-02T00:39:33.817Z,100.00
2023-03-02T00:40:15.896Z,100.00
2023-03-02T00:40:59.338Z,100.00
2023-03-02T00:41:41.016Z,100.00
2023-03-02T00:42:22.936Z,100.00
2023-03-02T00:43:05.195Z,100.00
2023-03-02T00:43:47.086Z,100.00
2023-03-02T00:44:28.711Z,100.00
2023-03-02T00:45:10.779Z,100.00
2023-03-02T00:45:52.482Z,100.00
2023-03-02T00:46:34.343Z,100.00
2023-03-02T00:47:16.182Z,100.00
2023-03-02T00:47:57.832Z,100.00
2023-03-02T00:48:39.460Z,100.00
2023-03-02T00:49:21.373Z,100.00
2023-03-02T00:50:04.989Z,100.00
2023-03-02T00:50:46.672Z,100.00
2023-03-02T00:51:28.261Z,100.00
2023-03-02T00:52:09.835Z,100.00
2023-03-02T00:52:51.443Z,100.00
2023-03-02T00:53:34.154Z,100.00
2023-03-02T00:54:15.853Z,100.00
2023-03-02T00:54:57.636Z,100.00
2023-03-02T00:55:39.208Z,100.00
2023-03-02T00:56:21.041Z,100.00
2023-03-02T00:57:05.334Z,100.00
2023-03-02T00:57:54.922Z,100.00
2023-03-02T00:58:41.312Z,100.00
2023-03-02T00:59:26.830Z,100.00
2023-03-02T01:00:37.112Z,100.00
2023-03-02T01:01:21.332Z,100.00
2023-03-02T01:02:07.088Z,100.00
2023-03-02T01:02:50.514Z,100.00
2023-03-02T01:03:32.339Z,100.00
2023-03-02T01:04:14.006Z,100.00
2023-03-02T01:04:55.817Z,100.00
2023-03-02T01:05:38.163Z,100.00
2023-03-02T01:06:21.211Z,100.00
2023-03-02T01:07:11.445Z,100.00
2023-03-02T01:07:53.035Z,100.00
2023-03-02T01:08:37.738Z,100.00
2023-03-02T01:09:19.335Z,100.00
2023-03-02T01:10:00.946Z,100.00
2023-03-02T01:10:42.553Z,100.00
2023-03-02T01:11:24.215Z,100.00
2023-03-02T01:12:09.366Z,100.00
2023-03-02T01:12:50.993Z,100.00
2023-03-02T01:13:32.558Z,100.00
2023-03-02T01:14:15.186Z,100.00
2023-03-02T01:14:57.262Z,100.00
2023-03-02T01:15:38.853Z,100.00
2023-03-02T01:16:20.512Z,100.00
2023-03-02T01:17:04.038Z,100.00
2023-03-02T01:17:46.727Z,100.00
2023-03-02T01:18:28.366Z,100.00
2023-03-02T01:19:10.402Z,100.00
2023-03-02T01:19:52.731Z,100.00
2023-03-02T01:20:34.511Z,100.00
2023-03-02T01:21:16.693Z,100.00
2023-03-02T01:21:58.417Z,100.00
2023-03-02T01:22:40.096Z,100.00
2023-03-02T01:23:21.684Z,100.00
2023-03-02T01:24:03.434Z,100.00
2023-03-02T01:24:45.172Z,100.00
2023-03-02T01:25:26.916Z,100.00
2023-03-02T01:26:09.088Z,100.00
2023-03-02T01:26:50.667Z,100.00
2023-03-02T01:27:32.568Z,100.00
2023-03-02T01:28:14.179Z,100.00
2023-03-02T01:28:56.306Z,100.00
2023-03-02T01:29:38.120Z,100.00
2023-03-02T01:30:20.060Z,100.00
2023-03-02T01:31:03.106Z,100.00
2023-03-02T01:31:44.753Z,100.00
2023-03-02T01:32:26.450Z,100.00
2023-03-02T01:33:08.065Z,100.00
2023-03-02T01:33:49.690Z,100.00
2023-03-02T01:34:31.337Z,100.00
2023-03-02T01:35:13.044Z,100.00
2023-03-02T01:35:54.758Z,100.00
2023-03-02T01:36:36.539Z,100.00
2023-03-02T01:37:20.817Z,100.00
2023-03-02T01:38:02.452Z,100.00
2023-03-02T01:38:44.512Z,100.00
2023-03-02T01:39:26.289Z,100.00
2023-03-02T01:40:09.275Z,100.00
2023-03-02T01:40:50.992Z,100.00
2023-03-02T01:41:32.935Z,100.00
2023-03-02T01:42:14.885Z,100.00
2023-03-02T01:43:02.433Z,100.00
2023-03-02T01:43:44.061Z,100.00
2023-03-02T01:44:45.551Z,100.00
2023-03-02T01:45:52.905Z,100.00
2023-03-02T01:46:40.806Z,100.00
2023-03-02T01:47:39.068Z,100.00
2023-03-02T01:48:31.554Z,100.00
2023-03-02T01:49:15.130Z,100.00
2023-03-02T01:50:26.170Z,100.00
2023-03-02T01:51:15.899Z,100.00
2023-03-02T01:51:59.173Z,100.00
2023-03-02T01:52:41.501Z,100.00
2023-03-02T01:53:26.936Z,100.00
2023-03-02T01:54:17.118Z,100.00
2023-03-02T01:55:03.620Z,100.00
2023-03-02T01:55:46.105Z,100.00
2023-03-02T01:56:31.981Z,100.00
2023-03-02T01:57:13.932Z,100.00
2023-03-02T01:57:58.019Z,100.00
2023-03-02T01:58:40.152Z,100.00
2023-03-02T01:59:24.242Z,100.00
2023-03-02T02:00:10.454Z,100.00
2023-03-02T02:00:56.331Z,100.00
2023-03-02T02:01:41.175Z,100.00
2023-03-02T02:02:23.577Z,100.00
2023-03-02T02:03:11.698Z,100.00
2023-03-02T02:03:53.396Z,100.00
2023-03-02T02:04:37.656Z,100.00
2023-03-02T02:05:23.089Z,100.00
2023-03-02T02:06:32.897Z,100.00
2023-03-02T02:07:14.979Z,100.00
2023-03-02T02:07:56.988Z,100.00
2023-03-02T02:08:39.319Z,100.00
2023-03-02T02:09:24.015Z,100.00
2023-03-02T02:10:06.702Z,100.00
2023-03-02T02:10:49.031Z,100.00
2023-03-02T02:11:30.891Z,100.00
2023-03-02T02:12:15.394Z,100.00
2023-03-02T02:12:56.954Z,100.00
2023-03-02T02:13:38.874Z,100.00
2023-03-02T02:14:21.207Z,100.00
2023-03-02T02:15:04.120Z,100.00
2023-03-02T02:15:46.187Z,100.00
2023-03-02T02:16:31.453Z,100.00
2023-03-02T02:17:14.653Z,100.00
2023-03-02T02:17:56.462Z,100.00
2023-03-02T02:18:40.905Z,100.00
2023-03-02T02:19:40.235Z,100.00
2023-03-02T02:20:37.385Z,100.00
2023-03-02T02:21:20.766Z,100.00
2023-03-02T02:22:02.863Z,100.00
2023-03-02T02:23:05.751Z,100.00
2023-03-02T02:24:04.549Z,100.00
2023-03-02T02:24:53.261Z,100.00
2023-03-02T02:25:52.849Z,100.00
2023-03-02T02:26:43.807Z,100.00
2023-03-02T02:27:33.547Z,100.00
2023-03-02T02:28:30.816Z,100.00
2023-03-02T02:29:22.542Z,100.00
2023-03-02T02:30:06.578Z,100.00
2023-03-02T02:31:03.748Z,100.00
2023-03-02T02:32:02.692Z,100.00
2023-03-02T02:32:47.450Z,100.00
2023-03-02T02:33:29.440Z,100.00
2023-03-02T02:34:22.431Z,100.00
2023-03-02T02:35:14.485Z,100.00
2023-03-02T02:36:04.687Z,100.00
2023-03-02T02:36:49.389Z,100.00
2023-03-02T02:37:45.818Z,100.00
2023-03-02T02:38:31.698Z,100.00
2023-03-02T02:39:29.000Z,100.00
2023-03-02T02:40:16.507Z,100.00
2023-03-02T02:41:03.232Z,100.00
2023-03-02T02:41:50.920Z,100.00
2023-03-02T02:42:36.283Z,100.00
2023-03-02T02:43:20.563Z,100.00
2023-03-02T02:44:02.178Z,100.00
2023-03-02T02:44:43.865Z,100.00
2023-03-02T02:45:27.802Z,100.00
2023-03-02T02:46:11.656Z,100.00
2023-03-02T02:46:53.354Z,100.00
2023-03-02T02:47:36.275Z,100.00
2023-03-02T02:48:24.186Z,100.00
2023-03-02T02:49:06.490Z,100.00
2023-03-02T02:49:51.972Z,100.00
2023-03-02T02:50:35.286Z,100.00
2023-03-02T02:51:22.785Z,100.00
2023-03-02T02:52:06.131Z,100.00
2023-03-02T02:52:57.816Z,100.00
2023-03-02T02:53:58.916Z,100.00
2023-03-02T02:54:46.371Z,100.00
2023-03-02T02:55:30.218Z,100.00
2023-03-02T02:56:13.411Z,100.00
2023-03-02T02:56:57.474Z,100.00
2023-03-02T02:57:39.279Z,100.00
2023-03-02T02:58:27.263Z,100.00
2023-03-02T02:59:23.585Z,100.00
2023-03-02T03:00:06.712Z,100.00
2023-03-02T03:00:48.420Z,100.00
2023-03-02T03:01:30.272Z,100.00
2023-03-02T03:02:45.676Z,100.00
2023-03-02T03:03:34.453Z,100.00
2023-03-02T03:04:22.077Z,100.00
2023-03-02T03:05:04.122Z,100.00
2023-03-02T03:05:49.154Z,100.00
2023-03-02T03:06:38.205Z,100.00
2023-03-02T03:07:23.564Z,100.00
2023-03-02T03:08:10.615Z,100.00
2023-03-02T03:08:57.521Z,100.00
2023-03-02T03:09:57.439Z,100.00
2023-03-02T03:10:41.206Z,100.00
2023-03-02T03:11:26.701Z,100.00
2023-03-02T03:12:17.743Z,100.00
2023-03-02T03:12:59.582Z,100.00
2023-03-02T03:13:44.414Z,100.00
2023-03-02T03:14:36.499Z,100.00
2023-03-02T03:15:18.723Z,100.00
2023-03-02T03:16:02.813Z,100.00
2023-03-02T03:16:49.153Z,100.00
2023-03-02T03:17:30.832Z,100.00
2023-03-02T03:18:22.899Z,100.00
2023-03-02T03:19:17.272Z,100.00
2023-03-02T03:20:06.109Z,100.00
2023-03-02T03:20:50.311Z,100.00
2023-03-02T03:21:32.329Z,100.00
2023-03-02T03:22:16.267Z,100.00
2023-03-02T03:23:00.741Z,100.00
2023-03-02T03:23:44.923Z,100.00
2023-03-02T03:24:29.021Z,100.00
2023-03-02T03:25:15.281Z,100.00
2023-03-02T03:25:58.730Z,100.00
2023-03-02T03:26:40.646Z,100.00
2023-03-02T03:27:22.671Z,100.00
2023-03-02T03:28:04.581Z,100.00
2023-03-02T03:28:46.999Z,100.00
2023-03-02T03:29:29.772Z,100.00
2023-03-02T03:30:15.217Z,100.00
2023-03-02T03:30:58.109Z,100.00
2023-03-02T03:31:40.276Z,100.00
2023-03-02T03:32:22.229Z,100.00
2023-03-02T03:33:14.268Z,100.00
2023-03-02T03:33:56.453Z,100.00
2023-03-02T03:34:40.734Z,100.00
2023-03-02T03:35:28.217Z,100.00
2023-03-02T03:36:10.032Z,100.00
2023-03-02T03:36:52.325Z,100.00
2023-03-02T03:37:35.790Z,100.00
2023-03-02T03:38:18.216Z,100.00
2023-03-02T03:39:02.474Z,100.00
2023-03-02T03:39:46.322Z,100.00
2023-03-02T03:40:29.036Z,100.00
2023-03-02T03:41:10.854Z,100.00
2023-03-02T03:41:52.949Z,100.00
2023-03-02T03:42:35.927Z,100.00
2023-03-02T03:43:18.243Z,100.00
2023-03-02T03:44:05.425Z,100.00
2023-03-02T03:44:49.096Z,100.00
2023-03-02T03:45:31.173Z,100.00
2023-03-02T03:46:13.809Z,100.00
2023-03-02T03:46:55.606Z,100.00
2023-03-02T03:47:37.720Z,100.00
2023-03-02T03:48:20.963Z,100.00
2023-03-02T03:49:04.180Z,100.00
2023-03-02T03:49:45.896Z,100.00
2023-03-02T03:50:27.917Z,100.00
2023-03-02T03:51:09.875Z,100.00
2023-03-02T03:51:51.683Z,100.00
2023-03-02T03:52:33.405Z,100.00
2023-03-02T03:53:22.712Z,100.00
2023-03-02T03:54:08.063Z,100.00
2023-03-02T03:54:53.041Z,100.00
2023-03-02T03:55:34.658Z,100.00
2023-03-02T03:56:16.266Z,100.00
2023-03-02T03:56:57.902Z,100.00
2023-03-02T03:57:40.578Z,100.00
2023-03-02T03:58:24.008Z,100.00
2023-03-02T03:59:08.310Z,100.00
2023-03-02T03:59:58.102Z,100.00
2023-03-02T04:00:40.051Z,100.00
2023-03-02T04:01:34.998Z,100.00
2023-03-02T04:02:17.116Z,100.00
2023-03-02T04:02:59.218Z,100.00
2023-03-02T04:03:42.659Z,100.00
2023-03-02T04:04:33.986Z,100.00
2023-03-02T04:05:18.718Z,100.00
2023-03-02T04:06:03.573Z,100.00
2023-03-02T04:06:45.454Z,100.00
2023-03-02T04:07:27.271Z,100.00
2023-03-02T04:08:09.347Z,100.00
2023-03-02T04:08:51.275Z,100.00
2023-03-02T04:09:37.743Z,100.00
2023-03-02T04:10:20.344Z,100.00
2023-03-02T04:11:02.786Z,100.00
2023-03-02T04:11:46.722Z,100.00
2023-03-02T04:12:30.387Z,100.00
2023-03-02T04:13:12.526Z,100.00
2023-03-02T04:13:55.091Z,100.00
2023-03-02T04:14:36.938Z,100.00
2023-03-02T04:15:18.814Z,100.00
2023-03-02T04:16:02.408Z,100.00
2023-03-02T04:16:44.612Z,100.00
2023-03-02T04:17:27.431Z,100.00
2023-03-02T04:18:09.183Z,100.00
2023-03-02T04:18:51.395Z,100.00
2023-03-02T04:19:33.289Z,100.00
2023-03-02T04:20:16.612Z,100.00
2023-03-02T04:21:00.619Z,100.00
2023-03-02T04:21:46.701Z,100.00
2023-03-02T04:22:30.519Z,100.00
2023-03-02T04:23:12.409Z,100.00
2023-03-02T04:23:55.021Z,100.00
2023-03-02T04:24:37.773Z,100.00
2023-03-02T04:25:22.722Z,100.00
2023-03-02T04:26:06.762Z,100.00
2023-03-02T04:26:49.440Z,100.00
2023-03-02T04:27:31.518Z,100.00
2023-03-02T04:28:14.005Z,100.00
2023-03-02T04:28:56.827Z,100.00
2023-03-02T04:29:38.526Z,100.00
2023-03-02T04:30:25.636Z,100.00
2023-03-02T04:31:07.456Z,100.00
2023-03-02T04:31:49.353Z,100.00
2023-03-02T04:32:31.970Z,100.00
2023-03-02T04:33:13.639Z,100.00
2023-03-02T04:33:55.295Z,100.00
2023-03-02T04:34:37.551Z,100.00
2023-03-02T04:35:19.589Z,100.00
2023-03-02T04:36:02.068Z,100.00
2023-03-02T04:36:44.564Z,100.00
2023-03-02T04:37:28.028Z,100.00
2023-03-02T04:38:09.663Z,100.00
2023-03-02T04:38:51.750Z,100.00
2023-03-02T04:39:33.421Z,100.00
2023-03-02T04:40:17.416Z,100.00
2023-03-02T04:40:59.116Z,100.00
2023-03-02T04:41:40.680Z,100.00
2023-03-02T04:42:22.468Z,100.00
2023-03-02T04:43:04.098Z,100.00
2023-03-02T04:43:45.677Z,100.00
2023-03-02T04:44:27.513Z,100.00
2023-03-02T04:45:09.635Z,100.00
2023-03-02T04:45:52.508Z,100.00
2023-03-02T04:46:34.545Z,100.00
2023-03-02T04:47:16.499Z,100.00
2023-03-02T04:47:58.067Z,100.00
2023-03-02T04:48:39.811Z,100.00
2023-03-02T04:49:21.555Z,100.00
2023-03-02T04:50:03.485Z,100.00
2023-03-02T04:50:45.381Z,100.00
2023-03-02T04:51:39.253Z,100.00
2023-03-02T04:52:21.505Z,100.00
2023-03-02T04:53:03.208Z,100.00
2023-03-02T04:53:44.855Z,100.00
2023-03-02T04:54:27.357Z,100.00
2023-03-02T04:55:09.607Z,100.00
2023-03-02T04:55:51.198Z,100.00
2023-03-02T04:56:33.323Z,100.00
2023-03-02T04:57:15.080Z,100.00
2023-03-02T04:57:56.806Z,100.00
2023-03-02T04:58:38.360Z,100.00
2023-03-02T04:59:24.188Z,100.00
2023-03-02T05:00:09.804Z,100.00
2023-03-02T05:00:51.500Z,100.00
2023-03-02T05:01:33.121Z,100.00
2023-03-02T05:02:14.811Z,100.00
2023-03-02T05:02:58.201Z,100.00
2023-03-02T05:03:40.064Z,100.00
2023-03-02T05:04:21.964Z,100.00
2023-03-02T05:05:04.041Z,100.00
2023-03-02T05:05:45.654Z,100.00
2023-03-02T05:06:27.333Z,100.00
2023-03-02T05:07:09.080Z,100.00
2023-03-02T05:07:51.482Z,100.00
2023-03-02T05:08:34.067Z,100.00
2023-03-02T05:09:15.960Z,100.00
2023-03-02T05:09:57.545Z,100.00
2023-03-02T05:10:39.116Z,100.00
2023-03-02T05:11:23.654Z,100.00
2023-03-02T05:12:05.540Z,100.00
2023-03-02T05:13:02.707Z,100.00
2023-03-02T05:13:44.315Z,100.00
2023-03-02T05:14:26.731Z,100.00
2023-03-02T05:15:08.470Z,100.00
2023-03-02T05:15:51.640Z,100.00
2023-03-02T05:16:36.452Z,100.00
2023-03-02T05:17:18.462Z,100.00
2023-03-02T05:18:00.636Z,100.00
2023-03-02T05:18:42.307Z,100.00
2023-03-02T05:19:24.280Z,100.00
2023-03-02T05:20:07.224Z,100.00
2023-03-02T05:20:50.271Z,100.00
2023-03-02T05:21:31.897Z,100.00
2023-03-02T05:22:13.490Z,100.00
2023-03-02T05:22:56.041Z,100.00
2023-03-02T05:23:37.618Z,100.00
2023-03-02T05:24:19.286Z,100.00
2023-03-02T05:25:00.925Z,100.00
2023-03-02T05:25:42.646Z,100.00
2023-03-02T05:26:24.351Z,100.00
2023-03-02T05:27:06.015Z,100.00
2023-03-02T05:27:47.686Z,100.00
2023-03-02T05:28:29.602Z,100.00
2023-03-02T05:29:11.233Z,100.00
2023-03-02T05:29:53.003Z,100.00
2023-03-02T05:30:37.472Z,100.00
2023-03-02T05:31:23.383Z,100.00
2023-03-02T05:32:05.084Z,100.00
2023-03-02T05:32:46.784Z,100.00
2023-03-02T05:33:29.908Z,100.00
2023-03-02T05:34:14.586Z,100.00
2023-03-02T05:34:56.213Z,100.00
2023-03-02T05:35:38.368Z,100.00
2023-03-02T05:36:21.658Z,100.00
2023-03-02T05:37:04.691Z,100.00
2023-03-02T05:37:46.442Z,100.00
2023-03-02T05:38:31.425Z,100.00
2023-03-02T05:39:13.365Z,100.00
2023-03-02T05:39:54.974Z,100.00
2023-03-02T05:40:36.597Z,100.00
2023-03-02T05:41:18.525Z,100.00
2023-03-02T05:42:00.112Z,100.00
2023-03-02T05:42:43.123Z,100.00
2023-03-02T05:43:24.692Z,100.00
2023-03-02T05:44:09.445Z,100.00
2023-03-02T05:44:51.104Z,100.00
2023-03-02T05:45:36.421Z,100.00
2023-03-02T05:46:19.386Z,100.00
2023-03-02T05:47:02.063Z,100.00
2023-03-02T05:47:43.776Z,100.00
2023-03-02T05:48:25.518Z,100.00
2023-03-02T05:49:07.259Z,100.00
2023-03-02T05:49:48.855Z,100.00
2023-03-02T05:50:30.773Z,100.00
2023-03-02T05:51:12.721Z,100.00
2023-03-02T05:51:54.365Z,100.00
2023-03-02T05:52:35.963Z,100.00
2023-03-02T05:53:17.568Z,100.00
2023-03-02T05:53:59.234Z,100.00
2023-03-02T05:54:40.937Z,100.00
2023-03-02T05:55:22.585Z,100.00
2023-03-02T05:56:04.564Z,100.00
2023-03-02T05:56:46.116Z,100.00
2023-03-02T05:57:27.718Z,100.00
2023-03-02T05:58:13.017Z,100.00
2023-03-02T05:58:54.769Z,100.00
2023-03-02T05:59:36.334Z,100.00
2023-03-02T06:00:19.006Z,100.00
2023-03-02T06:01:00.657Z,100.00
2023-03-02T06:01:42.289Z,100.00
2023-03-02T06:02:23.949Z,100.00
2023-03-02T06:03:05.611Z,100.00
2023-03-02T06:03:47.310Z,100.00
2023-03-02T06:04:28.983Z,100.00
2023-03-02T06:05:16.861Z,100.00
2023-03-02T06:05:58.572Z,100.00
2023-03-02T06:06:40.476Z,100.00
2023-03-02T06:07:22.233Z,100.00
2023-03-02T06:08:04.456Z,100.00
2023-03-02T06:08:46.099Z,100.00
2023-03-02T06:09:27.752Z,100.00
2023-03-02T06:10:12.258Z,100.00
2023-03-02T06:10:57.123Z,100.00
2023-03-02T06:11:38.818Z,100.00
2023-03-02T06:12:20.470Z,100.00
2023-03-02T06:13:02.115Z,100.00
2023-03-02T06:13:43.692Z,100.00
2023-03-02T06:14:25.317Z,100.00
2023-03-02T06:15:08.129Z,100.00
2023-03-02T06:15:49.770Z,100.00
2023-03-02T06:16:33.693Z,100.00
2023-03-02T06:17:15.639Z,100.00
2023-03-02T06:17:57.703Z,100.00
2023-03-02T06:18:41.394Z,100.00
2023-03-02T06:19:23.225Z,100.00
2023-03-02T06:20:10.621Z,100.00
2023-03-02T06:20:52.373Z,100.00
2023-03-02T06:21:33.991Z,100.00
2023-03-02T06:22:15.585Z,100.00
2023-03-02T06:22:57.261Z,100.00
2023-03-02T06:23:38.915Z,100.00
2023-03-02T06:24:20.543Z,100.00
2023-03-02T06:25:02.192Z,100.00
2023-03-02T06:25:48.561Z,100.00
2023-03-02T06:26:30.324Z,100.00
2023-03-02T06:27:13.421Z,100.00
2023-03-02T06:27:55.005Z,100.00
2023-03-02T06:28:49.826Z,100.00
2023-03-02T06:29:33.500Z,100.00
2023-03-02T06:30:16.994Z,100.00
2023-03-02T06:31:00.337Z,100.00
2023-03-02T06:31:41.956Z,100.00
2023-03-02T06:32:23.663Z,100.00
2023-03-02T06:33:05.299Z,100.00
2023-03-02T06:33:46.912Z,100.00
2023-03-02T06:34:29.573Z,100.00
2023-03-02T06:35:12.513Z,100.00
2023-03-02T06:35:54.256Z,100.00
2023-03-02T06:36:38.673Z,100.00
2023-03-02T06:37:20.360Z,100.00
2023-03-02T06:38:02.010Z,100.00
2023-03-02T06:38:43.609Z,100.00
2023-03-02T06:39:25.377Z,100.00
2023-03-02T06:40:10.942Z,100.00
2023-03-02T06:40:52.834Z,100.00
2023-03-02T06:41:34.595Z,100.00
2023-03-02T06:42:16.384Z,100.00
2023-03-02T06:43:00.933Z,100.00
2023-03-02T06:43:43.502Z,100.00
2023-03-02T06:44:25.259Z,100.00
2023-03-02T06:45:09.622Z,100.00
2023-03-02T06:45:51.279Z,100.00
2023-03-02T06:46:33.248Z,100.00
2023-03-02T06:47:15.098Z,100.00
2023-03-02T06:47:56.700Z,100.00
2023-03-02T06:48:38.793Z,100.00
2023-03-02T06:49:20.534Z,100.00
2023-03-02T06:50:02.289Z,100.00
2023-03-02T06:50:43.918Z,100.00
2023-03-02T06:51:25.844Z,100.00
2023-03-02T06:52:07.544Z,100.00
2023-03-02T06:52:49.158Z,100.00
2023-03-02T06:53:30.779Z,100.00
2023-03-02T06:54:12.410Z,100.00
2023-03-02T06:54:54.974Z,100.00
2023-03-02T06:55:36.585Z,100.00
2023-03-02T06:56:18.219Z,100.00
2023-03-02T06:56:59.904Z,100.00
2023-03-02T06:57:41.522Z,100.00
2023-03-02T06:58:23.065Z,100.00
2023-03-02T06:59:04.725Z,100.00
2023-03-02T06:59:46.354Z,100.00
2023-03-02T07:00:28.039Z,100.00
2023-03-02T07:01:09.775Z,100.00
2023-03-02T07:01:54.461Z,100.00
2023-03-02T07:02:37.218Z,100.00
2023-03-02T07:03:18.911Z,100.00
2023-03-02T07:04:00.619Z,100.00
2023-03-02T07:04:42.348Z,100.00
2023-03-02T07:05:24.510Z,100.00
2023-03-02T07:06:06.615Z,100.00
2023-03-02T07:06:48.329Z,100.00
2023-03-02T07:07:30.047Z,100.00
2023-03-02T07:08:11.858Z,100.00
2023-03-02T07:08:53.606Z,100.00
2023-03-02T07:09:35.812Z,100.00
2023-03-02T07:10:17.750Z,100.00
2023-03-02T07:10:59.713Z,100.00
2023-03-02T07:11:41.644Z,100.00
2023-03-02T07:12:23.298Z,100.00
2023-03-02T07:13:05.749Z,100.00
2023-03-02T07:13:48.034Z,100.00
2023-03-02T07:14:29.619Z,100.00
2023-03-02T07:15:14.025Z,100.00
2023-03-02T07:15:55.671Z,100.00
2023-03-02T07:16:37.357Z,100.00
2023-03-02T07:17:19.250Z,100.00
2023-03-02T07:18:00.953Z,100.00
2023-03-02T07:18:42.660Z,100.00
2023-03-02T07:19:24.377Z,100.00
2023-03-02T07:20:06.685Z,100.00
2023-03-02T07:20:48.356Z,100.00
2023-03-02T07:21:30.543Z,100.00
2023-03-02T07:22:12.348Z,100.00
2023-03-02T07:22:54.145Z,100.00
2023-03-02T07:23:36.161Z,100.00
2023-03-02T07:24:17.818Z,100.00
2023-03-02T07:24:59.444Z,100.00
2023-03-02T07:25:41.101Z,100.00
2023-03-02T07:26:22.828Z,100.00
2023-03-02T07:27:04.481Z,100.00
2023-03-02T07:27:46.229Z,100.00
2023-03-02T07:28:27.941Z,100.00
2023-03-02T07:29:09.653Z,100.00
2023-03-02T07:29:51.368Z,100.00
2023-03-02T07:30:33.096Z,100.00
2023-03-02T07:31:14.777Z,100.00
2023-03-02T07:31:59.272Z,100.00
2023-03-02T07:32:41.839Z,100.00
2023-03-02T07:33:23.437Z,100.00
2023-03-02T07:34:05.247Z,100.00
2023-03-02T07:34:46.976Z,100.00
2023-03-02T07:35:28.680Z,100.00
2023-03-02T07:36:10.398Z,100.00
2023-03-02T07:36:52.673Z,100.00
2023-03-02T07:37:34.276Z,100.00
2023-03-02T07:38:16.003Z,100.00
2023-03-02T07:38:57.614Z,100.00
2023-03-02T07:39:39.276Z,100.00
2023-03-02T07:40:20.947Z,100.00
2023-03-02T07:41:07.128Z,100.00
2023-03-02T07:41:48.711Z,100.00
2023-03-02T07:42:30.381Z,100.00
2023-03-02T07:43:13.702Z,100.00
2023-03-02T07:43:56.012Z,100.00
2023-03-02T07:44:37.835Z,100.00
2023-03-02T07:45:21.441Z,100.00
2023-03-02T07:46:04.492Z,100.00
2023-03-02T07:46:46.160Z,100.00
2023-03-02T07:47:27.857Z,100.00
2023-03-02T07:48:09.569Z,100.00
2023-03-02T07:48:51.228Z,100.00
2023-03-02T07:49:33.053Z,100.00
2023-03-02T07:50:14.873Z,100.00
2023-03-02T07:51:01.022Z,100.00
2023-03-02T07:51:42.711Z,100.00
2023-03-02T07:52:24.534Z,100.00
2023-03-02T07:53:06.159Z,100.00
2023-03-02T07:53:47.803Z,100.00
2023-03-02T07:54:30.492Z,100.00
2023-03-02T07:55:12.078Z,100.00
2023-03-02T07:55:53.891Z,100.00
2023-03-02T07:56:35.526Z,100.00
2023-03-02T07:57:18.148Z,100.00
2023-03-02T07:57:59.781Z,100.00
2023-03-02T07:58:41.467Z,100.00
2023-03-02T07:59:23.599Z,100.00
2023-03-02T08:00:05.994Z,100.00
2023-03-02T08:00:53.371Z,100.00
2023-03-02T08:01:35.415Z,100.00
2023-03-02T08:02:20.252Z,100.00
2023-03-02T08:03:02.123Z,100.00
2023-03-02T08:03:43.822Z,100.00
2023-03-02T08:04:26.176Z,100.00
2023-03-02T08:05:08.519Z,100.00
2023-03-02T08:05:50.248Z,100.00
2023-03-02T08:06:32.519Z,100.00
2023-03-02T08:07:14.311Z,100.00
2023-03-02T08:07:55.900Z,100.00
2023-03-02T08:08:38.639Z,100.00
2023-03-02T08:09:20.276Z,100.00
2023-03-02T08:10:02.065Z,100.00
2023-03-02T08:10:43.740Z,100.00
2023-03-02T08:11:25.764Z,100.00
2023-03-02T08:12:07.574Z,100.00
2023-03-02T08:12:49.219Z,100.00
2023-03-02T08:13:30.857Z,100.00
2023-03-02T08:14:12.686Z,100.00
2023-03-02T08:14:54.437Z,100.00
2023-03-02T08:15:36.070Z,100.00
2023-03-02T08:16:18.094Z,100.00
2023-03-02T08:16:59.869Z,98.13
2023-03-02T08:17:41.508Z,97.47
2023-03-02T08:18:23.169Z,95.55
2023-03-02T08:19:04.753Z,97.13
2023-03-02T08:19:46.962Z,95.86
2023-03-02T08:20:28.616Z,95.65
2023-03-02T08:21:16.875Z,94.16
2023-03-02T08:21:58.720Z,93.09
2023-03-02T08:22:40.612Z,92.10
2023-03-02T08:23:22.722Z,93.22
2023-03-02T08:24:05.042Z,92.07
2023-03-02T08:24:48.090Z,92.11
2023-03-02T08:25:30.200Z,92.82
2023-03-02T08:26:14.770Z,93.72
2023-03-02T08:27:02.503Z,95.20
2023-03-02T08:27:46.011Z,94.92
2023-03-02T08:28:27.790Z,95.13
2023-03-02T08:29:09.454Z,95.11
2023-03-02T08:29:51.115Z,95.71
2023-03-02T08:30:32.815Z,93.27
2023-03-02T08:31:14.798Z,94.23
2023-03-02T08:31:58.894Z,93.54
2023-03-02T08:32:40.888Z,93.91
2023-03-02T08:33:22.597Z,93.75
2023-03-02T08:34:04.436Z,93.51
2023-03-02T08:34:46.065Z,93.31
2023-03-02T08:35:27.714Z,93.47
2023-03-02T08:36:13.841Z,92.32
2023-03-02T08:36:55.593Z,92.41
2023-03-02T08:37:37.283Z,89.23
2023-03-02T08:38:18.942Z,90.06
2023-03-02T08:39:00.572Z,90.89
2023-03-02T08:39:42.157Z,90.13
2023-03-02T08:40:23.829Z,89.23
2023-03-02T08:41:07.934Z,89.79
2023-03-02T08:41:53.630Z,89.70
2023-03-02T08:42:35.253Z,90.09
2023-03-02T08:43:17.310Z,88.56
2023-03-02T08:43:59.085Z,89.61
2023-03-02T08:44:40.726Z,92.49
2023-03-02T08:45:25.704Z,92.34
2023-03-02T08:46:07.822Z,90.02
2023-03-02T08:46:50.440Z,90.54
2023-03-02T08:47:32.619Z,90.35
2023-03-02T08:48:14.267Z,86.14
2023-03-02T08:48:56.236Z,85.95
2023-03-02T08:49:37.900Z,85.57
2023-03-02T08:50:19.525Z,87.04
2023-03-02T08:51:02.548Z,85.21
2023-03-02T08:51:45.513Z,86.08
2023-03-02T08:52:27.221Z,85.64
2023-03-02T08:53:09.410Z,84.43
2023-03-02T08:53:55.026Z,85.16
2023-03-02T08:54:36.833Z,85.28
2023-03-02T08:55:18.533Z,84.95
2023-03-02T08:56:00.455Z,84.43
2023-03-02T08:56:43.712Z,83.16
2023-03-02T08:57:25.329Z,79.70
2023-03-02T08:58:06.955Z,79.21
2023-03-02T08:58:49.837Z,79.35
2023-03-02T08:59:31.557Z,80.22
2023-03-02T09:00:14.833Z,80.14
2023-03-02T09:00:56.536Z,80.12
2023-03-02T09:01:39.315Z,78.01
2023-03-02T09:02:21.056Z,77.80
2023-03-02T09:03:02.728Z,77.55
2023-03-02T09:03:45.155Z,77.55